createdAt,value
2017-09-19T00:01:12.612Z,95.80
2017-09-19T00:03:41.631Z,95.40
2017-09-19T00:06:10.768Z,95.30
2017-09-19T00:08:40.486Z,95.70
2017-09-19T00:11:09.457Z,95.40
2017-09-19T00:13:39.179Z,95.90
2017-09-19T00:16:08.214Z,95.90
2017-09-19T00:18:37.149Z,95.60
2017-09-19T00:21:06.905Z,96.20
2017-09-19T00:23:36.601Z,95.90
2017-09-19T00:26:20.584Z,95.90
2017-09-19T00:28:51.302Z,95.70
2017-09-19T00:31:21.055Z,95.70
2017-09-19T00:33:51.536Z,96.10
2017-09-19T00:36:20.523Z,95.90
2017-09-19T00:38:49.715Z,95.70
2017-09-19T00:41:19.465Z,95.90
2017-09-19T00:43:48.414Z,95.60
2017-09-19T00:46:17.360Z,95.70
2017-09-19T00:48:46.374Z,95.70
2017-09-19T00:51:16.116Z,95.80
2017-09-19T00:53:45.107Z,95.80
2017-09-19T00:56:14.844Z,95.90
2017-09-19T00:58:43.848Z,96.00
2017-09-19T01:01:12.793Z,96.20
2017-09-19T01:03:41.784Z,96.50
2017-09-19T01:06:10.809Z,96.40
2017-09-19T01:08:39.872Z,96.30
2017-09-19T01:11:08.859Z,96.60
2017-09-19T01:13:38.784Z,96.10
2017-09-19T01:16:07.760Z,95.90
2017-09-19T01:18:36.866Z,95.70
2017-09-19T01:21:05.816Z,95.70
2017-09-19T01:23:34.842Z,95.80
2017-09-19T01:26:03.860Z,95.70
2017-09-19T01:28:33.241Z,95.80
2017-09-19T01:31:02.307Z,95.70
2017-09-19T01:33:31.288Z,95.80
2017-09-19T01:36:01.009Z,96.10
2017-09-19T01:38:29.986Z,95.60
2017-09-19T01:40:59.693Z,96.10
2017-09-19T01:43:29.461Z,96.10
2017-09-19T01:45:58.456Z,95.50
2017-09-19T01:48:27.420Z,95.70
2017-09-19T01:50:56.418Z,96.00
2017-09-19T01:53:25.398Z,95.90
2017-09-19T01:55:54.422Z,96.00
2017-09-19T01:58:23.395Z,95.80
2017-09-19T02:00:52.365Z,95.80
2017-09-19T02:03:21.749Z,95.80
2017-09-19T02:05:50.675Z,95.60
2017-09-19T02:08:20.468Z,95.60
2017-09-19T02:10:50.215Z,95.90
2017-09-19T02:13:20.324Z,95.80
2017-09-19T02:15:49.339Z,95.70
2017-09-19T02:18:18.385Z,95.70
2017-09-19T02:20:47.369Z,95.80
2017-09-19T02:23:16.380Z,95.70
2017-09-19T02:25:45.384Z,96.00
2017-09-19T02:28:14.337Z,95.60
2017-09-19T02:30:43.728Z,95.70
2017-09-19T02:33:12.671Z,95.70
2017-09-19T02:35:41.644Z,95.50
2017-09-19T02:38:10.595Z,95.40
2017-09-19T02:40:40.636Z,95.40
2017-09-19T02:43:09.598Z,95.20
2017-09-19T02:45:38.640Z,95.50
2017-09-19T02:48:07.717Z,95.60
2017-09-19T02:50:36.708Z,95.60
2017-09-19T02:53:06.433Z,96.20
2017-09-19T02:55:35.402Z,95.90
2017-09-19T02:58:04.757Z,95.60
2017-09-19T03:00:33.739Z,95.50
2017-09-19T03:03:02.701Z,95.60
2017-09-19T03:05:32.499Z,95.80
2017-09-19T03:08:01.452Z,95.30
2017-09-19T03:10:30.417Z,95.50
2017-09-19T03:12:59.390Z,95.70
2017-09-19T03:15:28.351Z,95.80
2017-09-19T03:17:57.308Z,95.70
2017-09-19T03:20:26.293Z,95.80
2017-09-19T03:22:55.315Z,95.50
2017-09-19T03:25:24.353Z,95.60
2017-09-19T03:27:53.317Z,95.30
2017-09-19T03:30:24.233Z,96.10
2017-09-19T03:32:53.192Z,95.50
2017-09-19T03:35:22.241Z,95.80
2017-09-19T03:37:52.025Z,95.60
2017-09-19T03:40:20.974Z,96.00
2017-09-19T03:42:49.942Z,95.40
2017-09-19T03:45:19.322Z,95.30
2017-09-19T03:47:48.692Z,95.40
2017-09-19T03:50:17.718Z,95.70
2017-09-19T03:52:47.813Z,96.00
2017-09-19T03:55:17.476Z,95.50
2017-09-19T03:57:46.443Z,95.40
2017-09-19T04:00:16.163Z,95.70
2017-09-19T04:02:45.164Z,95.20
2017-09-19T04:05:14.136Z,95.50
2017-09-19T04:07:43.119Z,95.50
2017-09-19T04:10:12.121Z,95.70
2017-09-19T04:12:41.880Z,95.90
2017-09-19T04:15:10.843Z,95.50
2017-09-19T04:17:39.803Z,95.60
2017-09-19T04:20:09.564Z,95.90
2017-09-19T04:22:38.525Z,95.40
2017-09-19T04:25:08.348Z,96.10
2017-09-19T04:27:37.324Z,95.60
2017-09-19T04:30:06.328Z,96.00
2017-09-19T04:32:35.311Z,96.00
2017-09-19T04:35:05.095Z,95.70
2017-09-19T04:37:34.068Z,96.00
2017-09-19T04:40:03.190Z,96.30
2017-09-19T04:42:32.286Z,96.10
2017-09-19T04:45:02.072Z,96.70
2017-09-19T04:47:31.038Z,95.70
2017-09-19T04:50:00.086Z,95.80
2017-09-19T04:52:29.817Z,96.70
2017-09-19T04:54:58.835Z,96.60
2017-09-19T04:57:28.551Z,96.80
2017-09-19T04:59:57.528Z,96.80
2017-09-19T05:02:26.480Z,96.60
2017-09-19T05:04:56.204Z,97.20
2017-09-19T05:07:25.153Z,97.00
2017-09-19T05:09:54.119Z,97.10
2017-09-19T05:12:23.082Z,96.90
2017-09-19T05:14:52.075Z,96.50
2017-09-19T05:17:21.034Z,96.20
2017-09-19T05:19:50.377Z,96.30
2017-09-19T05:22:19.409Z,96.30
2017-09-19T05:24:48.375Z,96.40
2017-09-19T05:27:17.664Z,96.10
2017-09-19T05:29:47.383Z,96.20
2017-09-19T05:32:16.492Z,96.00
2017-09-19T05:34:45.442Z,96.10
2017-09-19T05:37:14.437Z,96.40
2017-09-19T05:39:43.399Z,96.60
2017-09-19T05:42:12.369Z,96.90
2017-09-19T05:44:41.347Z,96.90
2017-09-19T05:47:10.375Z,96.80
2017-09-19T05:49:39.336Z,97.00
2017-09-19T05:52:08.328Z,97.80
2017-09-19T05:54:37.280Z,97.30
2017-09-19T05:57:06.273Z,97.30
2017-09-19T05:59:35.634Z,97.40
2017-09-19T06:02:04.613Z,97.00
2017-09-19T06:04:33.694Z,96.90
2017-09-19T06:07:02.762Z,97.00
2017-09-19T06:09:33.225Z,97.50
2017-09-19T06:12:02.203Z,97.50
2017-09-19T06:14:31.179Z,97.40
2017-09-19T06:17:00.234Z,97.40
2017-09-19T06:19:29.641Z,97.00
2017-09-19T06:21:59.375Z,97.40
2017-09-19T06:24:28.388Z,96.90
2017-09-19T06:26:58.087Z,96.50
2017-09-19T06:29:28.728Z,96.90
2017-09-19T06:31:57.724Z,96.80
2017-09-19T06:34:26.697Z,96.80
2017-09-19T06:36:57.452Z,96.70
2017-09-19T06:39:27.259Z,96.60
2017-09-19T06:41:56.245Z,96.70
2017-09-19T06:44:26.024Z,96.80
2017-09-19T06:46:54.992Z,97.10
2017-09-19T06:49:24.804Z,97.20
2017-09-19T06:51:54.189Z,97.30
2017-09-19T06:54:23.977Z,97.40
2017-09-19T06:56:52.952Z,96.50
2017-09-19T06:59:22.954Z,96.70
2017-09-19T07:01:52.596Z,97.00
2017-09-19T07:04:21.599Z,96.70
2017-09-19T07:06:50.664Z,97.20
2017-09-19T07:09:19.697Z,97.60
2017-09-19T07:11:50.103Z,97.40
2017-09-19T07:14:21.031Z,97.10
2017-09-19T07:16:50.085Z,96.20
2017-09-19T07:19:19.117Z,96.40
2017-09-19T07:21:48.099Z,96.90
2017-09-19T07:24:18.608Z,96.80
2017-09-19T07:26:47.565Z,96.60
2017-09-19T07:29:16.551Z,96.60
2017-09-19T07:31:45.636Z,96.70
2017-09-19T07:34:14.634Z,95.70
2017-09-19T07:36:43.588Z,96.20
2017-09-19T07:39:13.154Z,96.80
2017-09-19T07:41:42.521Z,96.30
2017-09-19T07:44:12.241Z,95.80
2017-09-19T07:46:41.210Z,96.40
2017-09-19T07:49:10.197Z,96.60
2017-09-19T07:51:39.189Z,96.20
2017-09-19T07:54:08.184Z,96.80
2017-09-19T07:56:37.910Z,95.90
2017-09-19T07:59:07.694Z,96.60
2017-09-19T08:01:36.664Z,96.10
2017-09-19T08:04:05.761Z,96.40
2017-09-19T08:06:34.762Z,96.60
2017-09-19T08:09:04.141Z,96.40
2017-09-19T08:11:33.120Z,96.80
2017-09-19T08:14:02.111Z,96.10
2017-09-19T08:16:32.766Z,96.50
2017-09-19T08:19:01.818Z,96.50
2017-09-19T08:21:30.859Z,96.50
2017-09-19T08:24:00.319Z,96.70
2017-09-19T08:26:30.079Z,96.90
2017-09-19T08:28:59.472Z,96.10
2017-09-19T08:31:28.691Z,96.50
2017-09-19T08:33:58.247Z,96.70
2017-09-19T08:36:28.016Z,96.40
2017-09-19T08:38:57.012Z,95.90
2017-09-19T08:41:26.159Z,96.20
2017-09-19T08:43:55.203Z,95.60
2017-09-19T08:46:25.704Z,96.00
2017-09-19T08:48:54.701Z,95.40
2017-09-19T08:51:23.693Z,95.60
2017-09-19T08:53:52.660Z,95.90
2017-09-19T08:56:21.671Z,95.70
2017-09-19T08:58:50.732Z,96.10
2017-09-19T09:01:20.730Z,95.90
2017-09-19T09:03:49.715Z,96.60
2017-09-19T09:06:19.544Z,96.60
2017-09-19T09:08:50.175Z,96.40
2017-09-19T09:11:19.322Z,96.00
2017-09-19T09:13:49.307Z,96.10
2017-09-19T09:16:18.280Z,96.00
2017-09-19T09:18:48.690Z,95.50
2017-09-19T09:21:18.544Z,95.30
2017-09-19T09:23:48.027Z,95.30
2017-09-19T09:26:17.064Z,95.50
2017-09-19T09:28:46.060Z,96.30
2017-09-19T09:31:15.703Z,96.60
2017-09-19T09:33:45.490Z,95.90
2017-09-19T09:36:14.500Z,95.60
2017-09-19T09:38:43.535Z,94.90
2017-09-19T09:41:12.536Z,95.00
2017-09-19T09:43:41.591Z,94.90
2017-09-19T09:46:10.644Z,94.50
2017-09-19T09:48:39.645Z,94.80
2017-09-19T09:51:08.656Z,95.40
2017-09-19T09:53:37.662Z,94.90
2017-09-19T09:56:07.663Z,95.20
2017-09-19T09:58:36.808Z,94.20
2017-09-19T10:01:06.743Z,94.80
2017-09-19T10:03:35.708Z,94.60
2017-09-19T10:06:05.201Z,94.30
2017-09-19T10:08:34.263Z,94.30
2017-09-19T10:11:03.671Z,94.40
2017-09-19T10:13:32.704Z,94.20
2017-09-19T10:16:01.718Z,93.00
2017-09-19T10:18:30.715Z,93.00
2017-09-19T10:21:00.104Z,93.20
2017-09-19T10:23:29.131Z,93.20
2017-09-19T10:25:58.156Z,93.00
2017-09-19T10:28:27.238Z,93.30
2017-09-19T10:30:56.227Z,92.80
2017-09-19T10:33:25.214Z,92.90
2017-09-19T10:35:55.004Z,93.80
2017-09-19T10:38:24.165Z,93.80
2017-09-19T10:40:53.266Z,93.60
2017-09-19T10:43:23.069Z,93.30
2017-09-19T10:45:52.107Z,92.70
2017-09-19T10:48:21.220Z,91.50
2017-09-19T10:50:50.975Z,91.80
2017-09-19T10:53:20.718Z,92.40
2017-09-19T10:55:51.393Z,93.90
2017-09-19T10:58:20.394Z,91.20
2017-09-19T11:00:49.444Z,91.50
2017-09-19T11:03:19.348Z,92.10
2017-09-19T11:05:48.335Z,92.00
2017-09-19T11:08:17.329Z,90.10
2017-09-19T11:10:47.367Z,90.00
2017-09-19T11:13:16.396Z,90.50
2017-09-19T11:15:45.759Z,88.70
2017-09-19T11:18:14.778Z,86.00
2017-09-19T11:20:43.764Z,88.40
2017-09-19T11:23:12.815Z,89.60
2017-09-19T11:25:42.603Z,90.20
2017-09-19T11:28:11.641Z,87.20
2017-09-19T11:30:41.333Z,88.50
2017-09-19T11:33:10.322Z,89.20
2017-09-19T11:35:39.346Z,85.40
2017-09-19T11:38:08.728Z,83.10
2017-09-19T11:40:38.334Z,82.90
2017-09-19T11:43:08.137Z,80.80
2017-09-19T11:45:37.148Z,80.70
2017-09-19T11:48:06.961Z,78.30
2017-09-19T11:50:35.959Z,74.30
2017-09-19T11:53:04.985Z,75.10
2017-09-19T11:55:33.944Z,74.50
2017-09-19T11:58:02.933Z,76.60
2017-09-19T12:00:32.691Z,80.20
2017-09-19T12:03:02.683Z,80.10
2017-09-19T12:05:31.701Z,78.60
2017-09-19T12:08:00.686Z,76.00
2017-09-19T12:10:30.663Z,75.90
2017-09-19T12:12:59.712Z,75.30
2017-09-19T12:15:28.689Z,75.90
2017-09-19T12:17:57.677Z,74.20
2017-09-19T12:20:27.316Z,74.90
2017-09-19T12:22:56.364Z,71.20
2017-09-19T12:25:25.455Z,72.40
2017-09-19T12:27:54.448Z,72.10
2017-09-19T12:30:24.257Z,73.10
2017-09-19T12:32:53.256Z,73.30
2017-09-19T12:35:23.265Z,74.40
2017-09-19T12:37:52.255Z,71.60
2017-09-19T12:40:21.309Z,72.30
2017-09-19T12:42:51.225Z,68.90
2017-09-19T12:45:20.697Z,68.90
2017-09-19T12:47:50.528Z,61.50
2017-09-19T12:50:19.621Z,61.20
2017-09-19T12:52:49.207Z,62.10
2017-09-19T12:55:18.296Z,62.90
2017-09-19T12:57:48.748Z,66.80
2017-09-19T13:00:18.860Z,67.00
2017-09-19T13:02:47.989Z,69.20
2017-09-19T13:05:17.891Z,71.60
2017-09-19T13:07:47.665Z,73.20
2017-09-19T13:10:16.677Z,72.00
2017-09-19T13:12:46.468Z,72.30
2017-09-19T13:15:15.425Z,67.20
2017-09-19T13:17:44.423Z,65.50
2017-09-19T13:20:13.413Z,61.50
2017-09-19T13:22:42.476Z,62.90
2017-09-19T13:25:12.237Z,67.90
2017-09-19T13:27:41.246Z,64.00
2017-09-19T13:30:10.329Z,66.00
2017-09-19T13:32:51.304Z,67.20
2017-09-19T13:35:20.337Z,70.70
2017-09-19T13:37:50.072Z,74.60
2017-09-19T13:40:19.050Z,74.50
2017-09-19T13:42:48.022Z,73.50
2017-09-19T13:45:17.784Z,74.80
2017-09-19T13:47:47.586Z,75.90
2017-09-19T13:50:17.342Z,77.50
2017-09-19T13:52:46.326Z,78.10
2017-09-19T13:55:15.300Z,78.70
2017-09-19T13:57:44.681Z,79.40
2017-09-19T14:00:13.667Z,80.90
2017-09-19T14:02:43.042Z,79.40
2017-09-19T14:05:12.778Z,82.60
2017-09-19T14:07:41.765Z,82.50
2017-09-19T14:10:10.739Z,81.40
2017-09-19T14:12:40.501Z,83.00
2017-09-19T14:15:10.229Z,80.40
2017-09-19T14:17:39.205Z,80.00
2017-09-19T14:20:08.162Z,81.00
2017-09-19T14:22:37.166Z,82.90
2017-09-19T14:25:06.133Z,83.50
2017-09-19T14:27:35.914Z,90.20
2017-09-19T14:30:04.907Z,91.10
2017-09-19T14:32:33.915Z,92.40
2017-09-19T14:35:03.669Z,94.20
2017-09-19T14:37:32.656Z,92.90
2017-09-19T14:40:01.637Z,94.40
2017-09-19T14:42:30.631Z,93.60
2017-09-19T14:44:59.645Z,93.80
2017-09-19T14:47:28.681Z,95.00
2017-09-19T14:49:58.445Z,96.10
2017-09-19T14:52:27.402Z,96.90
2017-09-19T14:54:56.450Z,95.30
2017-09-19T14:57:25.425Z,95.50
2017-09-19T14:59:54.401Z,96.00
2017-09-19T15:02:23.366Z,96.00
2017-09-19T15:04:53.116Z,96.10
2017-09-19T15:07:22.246Z,95.70
2017-09-19T15:09:51.669Z,96.20
2017-09-19T15:12:21.424Z,96.30
2017-09-19T15:14:50.401Z,95.40
2017-09-19T15:17:19.406Z,95.90
2017-09-19T15:19:49.161Z,95.60
2017-09-19T15:22:18.242Z,96.50
2017-09-19T15:24:47.234Z,97.40
2017-09-19T15:27:17.852Z,97.30
2017-09-19T15:29:46.837Z,96.80
2017-09-19T15:32:15.959Z,96.70
2017-09-19T15:34:44.958Z,96.70
2017-09-19T15:37:14.157Z,97.00
2017-09-19T15:39:43.205Z,96.40
2017-09-19T15:42:12.254Z,96.60
2017-09-19T15:44:42.196Z,96.90
2017-09-19T15:47:11.203Z,96.50
2017-09-19T15:49:40.204Z,96.00
2017-09-19T15:52:10.040Z,95.90
2017-09-19T15:54:39.497Z,94.90
2017-09-19T15:57:08.585Z,95.20
2017-09-19T15:59:37.564Z,95.00
2017-09-19T16:02:06.549Z,94.30
2017-09-19T16:04:35.534Z,95.20
2017-09-19T16:07:04.640Z,94.30
2017-09-19T16:09:33.606Z,95.00
2017-09-19T16:12:03.432Z,95.00
2017-09-19T16:14:32.460Z,94.30
2017-09-19T16:17:01.416Z,94.50
2017-09-19T16:19:30.853Z,94.80
2017-09-19T16:21:59.853Z,94.70
2017-09-19T16:24:28.857Z,94.50
2017-09-19T16:26:57.866Z,94.60
2017-09-19T16:29:26.871Z,94.30
2017-09-19T16:31:55.947Z,94.50
2017-09-19T16:34:25.674Z,95.20
2017-09-19T16:36:55.768Z,95.40
2017-09-19T16:39:25.491Z,95.30
2017-09-19T16:41:54.477Z,95.10
2017-09-19T16:44:24.418Z,95.00
2017-09-19T16:46:53.464Z,94.40
2017-09-19T16:49:22.476Z,94.80
2017-09-19T16:51:51.492Z,95.00
2017-09-19T16:54:20.539Z,94.90
2017-09-19T16:56:49.558Z,95.20
2017-09-19T16:59:19.345Z,96.00
2017-09-19T17:01:48.373Z,95.60
2017-09-19T17:04:17.339Z,95.90
2017-09-19T17:06:46.333Z,95.90
2017-09-19T17:09:15.743Z,95.90
2017-09-19T17:11:44.703Z,95.60
2017-09-19T17:14:13.762Z,96.00
2017-09-19T17:16:42.768Z,96.30
2017-09-19T17:19:11.751Z,96.10
2017-09-19T17:21:41.529Z,96.80
2017-09-19T17:24:11.576Z,96.30
2017-09-19T17:26:40.560Z,96.40
2017-09-19T17:29:10.333Z,96.70
2017-09-19T17:31:39.516Z,96.30
2017-09-19T17:34:08.521Z,96.40
2017-09-19T17:36:37.602Z,96.50
2017-09-19T17:39:06.652Z,96.50
2017-09-19T17:41:36.377Z,96.90
2017-09-19T17:44:05.574Z,96.70
2017-09-19T17:46:34.547Z,96.50
2017-09-19T17:49:03.934Z,96.80
2017-09-19T17:51:34.364Z,97.00
2017-09-19T17:54:03.806Z,96.70
2017-09-19T17:56:32.775Z,97.00
2017-09-19T17:59:01.860Z,96.70
2017-09-19T18:01:31.642Z,96.90
2017-09-19T18:04:00.625Z,96.60
2017-09-19T18:06:29.595Z,96.80
2017-09-19T18:08:58.586Z,96.90
2017-09-19T18:11:27.615Z,97.20
2017-09-19T18:13:56.599Z,97.00
2017-09-19T18:16:25.591Z,97.10
2017-09-19T18:18:54.585Z,97.00
2017-09-19T18:21:23.624Z,97.20
2017-09-19T18:23:53.090Z,97.30
2017-09-19T18:26:22.142Z,97.60
2017-09-19T18:28:51.212Z,97.40
2017-09-19T18:31:20.185Z,97.80
2017-09-19T18:33:49.212Z,97.60
2017-09-19T18:36:18.250Z,97.60
2017-09-19T18:38:47.281Z,98.00
2017-09-19T18:41:16.368Z,97.80
2017-09-19T18:43:45.452Z,97.90
2017-09-19T18:46:15.256Z,98.30
2017-09-19T18:48:44.741Z,97.70
2017-09-19T18:51:13.743Z,97.80
2017-09-19T18:53:42.828Z,97.80
2017-09-19T18:56:11.852Z,98.10
2017-09-19T18:58:40.894Z,97.50
2017-09-19T19:01:10.205Z,97.80
2017-09-19T19:03:39.277Z,97.70
2017-09-19T19:06:08.689Z,97.60
2017-09-19T19:08:37.736Z,97.30
2017-09-19T19:11:07.506Z,97.90
2017-09-19T19:13:36.558Z,97.70
2017-09-19T19:16:05.615Z,97.50
2017-09-19T19:18:34.717Z,97.70
2017-09-19T19:21:04.633Z,98.20
2017-09-19T19:23:34.425Z,98.40
2017-09-19T19:26:04.211Z,97.90
2017-09-19T19:28:33.217Z,97.60
2017-09-19T19:31:02.215Z,97.40
2017-09-19T19:33:31.287Z,97.40
2017-09-19T19:36:00.415Z,97.80
2017-09-19T19:38:29.455Z,97.30
2017-09-19T19:40:58.637Z,97.30
2017-09-19T19:43:27.682Z,97.40
2017-09-19T19:45:56.706Z,97.60
2017-09-19T19:48:26.501Z,98.00
2017-09-19T19:50:55.518Z,97.60
2017-09-19T19:53:24.957Z,97.20
2017-09-19T19:55:54.112Z,97.40
2017-09-19T19:58:23.874Z,96.20
2017-09-19T20:00:52.913Z,97.50
2017-09-19T20:03:22.674Z,97.80
2017-09-19T20:05:51.682Z,97.90
2017-09-19T20:08:21.959Z,97.80
2017-09-19T20:10:51.631Z,97.90
2017-09-19T20:13:20.685Z,98.10
2017-09-19T20:15:49.696Z,98.40
2017-09-19T20:18:18.724Z,98.00
2017-09-19T20:20:47.721Z,98.00
2017-09-19T20:23:17.513Z,98.20
2017-09-19T20:25:46.490Z,98.00
2017-09-19T20:28:15.499Z,98.30
2017-09-19T20:30:44.680Z,98.20
2017-09-19T20:33:13.664Z,98.30
2017-09-19T20:35:43.397Z,98.30
2017-09-19T20:38:12.426Z,98.20
2017-09-19T20:40:41.849Z,98.50
2017-09-19T20:43:10.873Z,98.30
2017-09-19T20:45:39.871Z,98.20
2017-09-19T20:48:08.842Z,98.00
2017-09-19T20:50:38.609Z,97.80
2017-09-19T20:53:07.678Z,97.80
2017-09-19T20:55:36.653Z,97.90
2017-09-19T20:58:05.625Z,97.80
2017-09-19T21:00:34.614Z,97.80
2017-09-19T21:03:03.093Z,97.80
2017-09-19T21:05:37.673Z,97.60
2017-09-19T21:08:13.040Z,97.90
2017-09-19T21:10:48.361Z,97.50
2017-09-19T21:13:22.861Z,97.80
2017-09-19T21:15:57.381Z,97.50
2017-09-19T21:18:32.445Z,97.30
2017-09-19T21:21:01.836Z,97.30
2017-09-19T21:23:31.611Z,97.60
2017-09-19T21:26:00.581Z,97.60
2017-09-19T21:28:29.611Z,97.50
2017-09-19T21:30:58.595Z,97.50
2017-09-19T21:33:28.322Z,97.30
2017-09-19T21:35:58.058Z,97.70
2017-09-19T21:38:27.018Z,97.20
2017-09-19T21:40:56.778Z,97.60
2017-09-19T21:43:25.847Z,97.40
2017-09-19T21:45:55.532Z,97.70
2017-09-19T21:48:24.509Z,97.30
2017-09-19T21:50:53.610Z,97.60
2017-09-19T21:53:22.553Z,97.40
2017-09-19T21:55:51.727Z,97.00
2017-09-19T21:58:25.066Z,97.20
2017-09-19T22:00:54.050Z,97.40
2017-09-19T22:03:23.009Z,97.50
2017-09-19T22:05:52.033Z,97.30
2017-09-19T22:08:20.995Z,97.20
2017-09-19T22:10:50.020Z,97.20
2017-09-19T22:13:19.033Z,97.20
2017-09-19T22:15:48.020Z,97.70
2017-09-19T22:18:17.369Z,97.50
2017-09-19T22:20:46.748Z,97.80
2017-09-19T22:23:15.771Z,97.70
2017-09-19T22:25:44.750Z,97.60
2017-09-19T22:28:13.708Z,97.40
2017-09-19T22:30:43.436Z,97.90
2017-09-19T22:33:12.376Z,97.60
2017-09-19T22:35:41.368Z,97.90
2017-09-19T22:38:10.732Z,97.50
2017-09-19T22:40:39.697Z,97.10
2017-09-19T22:43:09.266Z,97.10
2017-09-19T22:45:38.229Z,97.40
2017-09-19T22:48:07.177Z,97.20
2017-09-19T22:50:36.216Z,97.00
2017-09-19T22:53:05.160Z,96.70
2017-09-19T22:55:34.144Z,97.00
2017-09-19T22:58:03.186Z,97.20
2017-09-19T23:00:32.221Z,97.40
2017-09-19T23:03:01.240Z,97.50
2017-09-19T23:05:30.209Z,97.30
2017-09-19T23:07:59.161Z,97.20
2017-09-19T23:10:28.160Z,97.50
2017-09-19T23:12:57.863Z,97.40
2017-09-19T23:15:27.248Z,97.20
2017-09-19T23:17:56.229Z,97.90
2017-09-19T23:20:25.981Z,97.70
2017-09-19T23:22:55.044Z,97.00
2017-09-19T23:25:24.019Z,97.10
2017-09-19T23:27:53.736Z,97.40
2017-09-19T23:30:25.363Z,97.10
2017-09-19T23:32:54.296Z,96.90
2017-09-19T23:35:23.257Z,97.10
2017-09-19T23:37:52.972Z,97.50
2017-09-19T23:40:22.719Z,97.20
2017-09-19T23:42:51.665Z,97.10
2017-09-19T23:45:20.650Z,96.80
2017-09-19T23:47:49.600Z,96.80
2017-09-19T23:50:18.575Z,96.70
2017-09-19T23:52:47.520Z,96.70
2017-09-19T23:55:16.501Z,96.50
2017-09-19T23:57:45.485Z,96.80
